Time;durP1;ratioP1;P1;durP2;ratioP2;P2;SDS_P1;SDS_P2;PMS_P1;PMS_P2;Temp;Humidity;BMP_temperature;BMP_pressure;BME280_temperature;BME280_humidity;BME280_pressure;Samples;Min_cycle;Max_cycle;Signal;HPM_P1;HPM_P2
2023/01/01 00:01:19;;;;;;;;;;;;;;;;;;5012154;28;19917;-90
2023/01/01 00:03:44;;;;;;;;;;;;;;;;;;5012491;28;19964;-89
2023/01/01 00:06:10;;;;;;;;;;;;;;;;;;5011453;28;19996;-90
2023/01/01 00:08:35;;;;;;;;;;;;;;;;;;5011317;28;20008;-89
2023/01/01 00:11:01;;;;;;;;;;;;;;;;;;5013673;28;19910;-90
2023/01/01 00:13:26;;;;;;;;;;;;;;;;;;5010894;28;19953;-90
2023/01/01 00:15:52;;;;;;;;;;;;;;;;;;5011477;28;19914;-90
2023/01/01 00:18:17;;;;;;;;;;;;;;;;;;5011364;28;20389;-90
2023/01/01 00:20:42;;;;;;;;;;;;;;;;;;5012306;28;20012;-88
2023/01/01 00:23:08;;;;;;;;;;;;;;;;;;4994858;28;19945;-89
2023/01/01 00:25:33;;;;;;;;;;;;;;;;;;4995130;28;19913;-89
2023/01/01 00:27:59;;;;;;;;;;;;;;;;;;4979024;28;19921;-89
2023/01/01 00:30:25;;;;;;;;;;;;;;;;;;4995358;28;19925;-89
2023/01/01 00:32:50;;;;;;;;;;;;;;;;;;5010990;28;19921;-90
2023/01/01 00:35:17;;;;;;;;;;;;;;;;;;5011972;28;19948;-89
2023/01/01 00:37:42;;;;;;;;;;;;;;;;;;4982689;28;19913;-90
2023/01/01 00:40:07;;;;;;;;;;;;;;;;;;4982781;28;20422;-89
2023/01/01 00:42:33;;;;;;;;;;;;;;;;;;4998267;28;19922;-89
2023/01/01 00:44:58;;;;;;;;;;;;;;;;;;4999046;28;19913;-89
2023/01/01 00:47:24;;;;;;;;;;;;;;;;;;4998558;28;20407;-89
2023/01/01 00:49:49;;;;;;;;;;;;;;;;;;4982782;28;19961;-88
2023/01/01 00:52:14;;;;;;;;;;;;;;;;;;5015164;28;20288;-89
2023/01/01 00:54:40;;;;;;;;;;;;;;;;;;4982363;28;19913;-88
2023/01/01 00:57:05;;;;;;;;;;;;;;;;;;4998741;28;19917;-89
2023/01/01 00:59:31;;;;;;;;;;;;;;;;;;4998557;28;19952;-89
2023/01/01 01:01:56;;;;;;;;;;;;;;;;;;5015081;28;20330;-89
2023/01/01 01:04:22;;;;;;;;;;;;;;;;;;5014489;28;20000;-88
2023/01/01 01:06:47;;;;;;;;;;;;;;;;;;5016035;28;19918;-89
2023/01/01 01:09:13;;;;;;;;;;;;;;;;;;4982405;28;19936;-88
2023/01/01 01:11:38;;;;;;;;;;;;;;;;;;5015413;28;19918;-88
2023/01/01 01:14:03;;;;;;;;;;;;;;;;;;5016559;28;19914;-89
2023/01/01 01:16:29;;;;;;;;;;;;;;;;;;5019767;28;19960;-88
2023/01/01 01:18:54;;;;;;;;;;;;;;;;;;5021651;28;19917;-88
2023/01/01 01:21:20;;;;;;;;;;;;;;;;;;5024400;28;20300;-88
2023/01/01 01:23:46;;;;;;;;;;;;;;;;;;5022412;28;19964;-88
2023/01/01 01:26:20;;;;;;;;;;;;;;;;;;5005051;28;19925;-89
2023/01/01 01:28:46;;;;;;;;;;;;;;;;;;5016706;28;19935;-89
2023/01/01 01:31:11;;;;;;;;;;;;;;;;;;5017300;28;20353;-88
2023/01/01 01:33:37;;;;;;;;;;;;;;;;;;5015330;28;19963;-88
2023/01/01 01:36:02;;;;;;;;;;;;;;;;;;4998981;28;19913;-88
2023/01/01 01:38:27;;;;;;;;;;;;;;;;;;5015563;28;19999;-88
2023/01/01 01:40:53;;;;;;;;;;;;;;;;;;5014987;28;20269;-89
2023/01/01 01:43:18;;;;;;;;;;;;;;;;;;4982462;28;19918;-87
2023/01/01 01:45:43;;;;;;;;;;;;;;;;;;5017116;28;19920;-88
2023/01/01 01:48:10;;;;;;;;;;;;;;;;;;5015127;28;19913;-88
2023/01/01 01:50:35;;;;;;;;;;;;;;;;;;5016934;28;20211;-90
2023/01/01 01:53:00;;;;;;;;;;;;;;;;;;5014999;28;19917;-88
2023/01/01 01:55:26;;;;;;;;;;;;;;;;;;5000478;28;20377;-88
2023/01/01 01:57:51;;;;;;;;;;;;;;;;;;5016373;28;19959;-88
2023/01/01 02:00:18;;;;;;;;;;;;;;;;;;5018142;28;20436;-88
2023/01/01 02:02:44;;;;;;;;;;;;;;;;;;5018389;28;19918;-88
2023/01/01 02:05:09;;;;;;;;;;;;;;;;;;5015931;28;20340;-89
2023/01/01 02:07:34;;;;;;;;;;;;;;;;;;4983192;28;19917;-89
2023/01/01 02:10:00;;;;;;;;;;;;;;;;;;4999580;28;19940;-88
2023/01/01 02:12:25;;;;;;;;;;;;;;;;;;5015769;28;20055;-89
2023/01/01 02:14:51;;;;;;;;;;;;;;;;;;5001842;28;20004;-88
2023/01/01 02:17:16;;;;;;;;;;;;;;;;;;5015859;28;20369;-89
2023/01/01 02:19:41;;;;;;;;;;;;;;;;;;5000327;28;19974;-87
2023/01/01 02:22:07;;;;;;;;;;;;;;;;;;5017092;28;19917;-89
2023/01/01 02:24:32;;;;;;;;;;;;;;;;;;5015417;28;20334;-89
2023/01/01 02:26:58;;;;;;;;;;;;;;;;;;5017700;28;19935;-88
2023/01/01 02:29:23;;;;;;;;;;;;;;;;;;5017675;28;19920;-86
2023/01/01 02:31:48;;;;;;;;;;;;;;;;;;4998821;28;19920;-87
2023/01/01 02:34:14;;;;;;;;;;;;;;;;;;4999319;28;19917;-87
2023/01/01 02:36:39;;;;;;;;;;;;;;;;;;5017119;28;19913;-87
2023/01/01 02:39:05;;;;;;;;;;;;;;;;;;5014590;28;19917;-88
2023/01/01 02:41:30;;;;;;;;;;;;;;;;;;5014693;28;19917;-87
2023/01/01 02:43:55;;;;;;;;;;;;;;;;;;5014467;28;19917;-89
2023/01/01 02:46:21;;;;;;;;;;;;;;;;;;5013605;28;19925;-88
2023/01/01 02:48:46;;;;;;;;;;;;;;;;;;5014574;28;19913;-88
2023/01/01 02:51:12;;;;;;;;;;;;;;;;;;5014761;28;19924;-90
2023/01/01 02:53:37;;;;;;;;;;;;;;;;;;5013264;28;19948;-89
2023/01/01 02:56:02;;;;;;;;;;;;;;;;;;5012921;28;19921;-88
2023/01/01 03:01:12;;;;;;;;;;;;;;;;;;5014249;28;19956;-90
2023/01/01 03:03:37;;;;;;;;;;;;;;;;;;4997161;28;20277;-89
2023/01/01 03:06:21;;;;;;;;;;;;;;;;;;4997050;28;20056;-88
2023/01/01 03:08:47;;;;;;;;;;;;;;;;;;5013226;28;20008;-90
2023/01/01 03:11:12;;;;;;;;;;;;;;;;;;5013473;28;19953;-91
2023/01/01 03:13:38;;;;;;;;;;;;;;;;;;5014885;28;20450;-90
2023/01/01 03:16:03;;;;;;;;;;;;;;;;;;4999816;28;19913;-87
2023/01/01 03:18:28;;;;;;;;;;;;;;;;;;5016393;28;19914;-88
2023/01/01 03:20:54;;;;;;;;;;;;;;;;;;5016239;28;20257;-90
2023/01/01 03:23:19;;;;;;;;;;;;;;;;;;5015208;28;19917;-88
2023/01/01 03:25:44;;;;;;;;;;;;;;;;;;5030456;28;19918;-89
2023/01/01 03:28:10;;;;;;;;;;;;;;;;;;4998451;28;19914;-88
2023/01/01 03:30:35;;;;;;;;;;;;;;;;;;5014046;28;19948;-90
2023/01/01 03:33:04;;;;;;;;;;;;;;;;;;4999058;28;19952;-87
2023/01/01 03:35:30;;;;;;;;;;;;;;;;;;5015577;28;19936;-87
2023/01/01 03:37:55;;;;;;;;;;;;;;;;;;5017716;28;20392;-88
2023/01/01 03:40:20;;;;;;;;;;;;;;;;;;5018005;28;19920;-89
2023/01/01 03:42:46;;;;;;;;;;;;;;;;;;5003032;28;19944;-88
2023/01/01 03:45:11;;;;;;;;;;;;;;;;;;5019547;28;19913;-89
2023/01/01 03:47:36;;;;;;;;;;;;;;;;;;5012371;28;19914;-87
2023/01/01 03:50:03;;;;;;;;;;;;;;;;;;5013141;28;19913;-90
2023/01/01 03:52:28;;;;;;;;;;;;;;;;;;4995468;28;19914;-90
2023/01/01 03:54:54;;;;;;;;;;;;;;;;;;5013163;28;20373;-90
2023/01/01 03:57:20;;;;;;;;;;;;;;;;;;4995997;28;20298;-90
2023/01/01 03:59:46;;;;;;;;;;;;;;;;;;5011882;28;19916;-89
2023/01/01 04:02:11;;;;;;;;;;;;;;;;;;5012956;28;19917;-89
2023/01/01 04:04:36;;;;;;;;;;;;;;;;;;5012958;28;19920;-89
2023/01/01 04:07:02;;;;;;;;;;;;;;;;;;5013108;28;19921;-90
2023/01/01 04:09:27;;;;;;;;;;;;;;;;;;5013519;28;19921;-90
2023/01/01 04:12:06;;;;;;;;;;;;;;;;;;5011551;28;19914;-90
2023/01/01 04:14:32;;;;;;;;;;;;;;;;;;4995527;28;19914;-89
2023/01/01 04:16:57;;;;;;;;;;;;;;;;;;5012300;28;19916;-86
2023/01/01 04:19:23;;;;;;;;;;;;;;;;;;5011775;28;20362;-89
2023/01/01 04:21:48;;;;;;;;;;;;;;;;;;5011391;28;19917;-89
2023/01/01 04:24:14;;;;;;;;;;;;;;;;;;5012328;28;19940;-90
2023/01/01 04:26:39;;;;;;;;;;;;;;;;;;5011694;28;20423;-89
2023/01/01 04:29:04;;;;;;;;;;;;;;;;;;5012738;28;19917;-89
2023/01/01 04:31:30;;;;;;;;;;;;;;;;;;4995102;28;19918;-89
2023/01/01 04:33:55;;;;;;;;;;;;;;;;;;5011757;28;20285;-89
2023/01/01 04:36:20;;;;;;;;;;;;;;;;;;5012907;28;20000;-90
2023/01/01 04:38:46;;;;;;;;;;;;;;;;;;5012556;28;19914;-89
2023/01/01 04:41:11;;;;;;;;;;;;;;;;;;5011258;28;19917;-90
2023/01/01 04:43:37;;;;;;;;;;;;;;;;;;5012212;28;20415;-89
2023/01/01 04:46:02;;;;;;;;;;;;;;;;;;4995156;28;19914;-88
2023/01/01 04:48:27;;;;;;;;;;;;;;;;;;5012513;28;19936;-89
2023/01/01 04:50:53;;;;;;;;;;;;;;;;;;5011314;28;20444;-90
2023/01/01 04:53:18;;;;;;;;;;;;;;;;;;5011082;28;19910;-90
2023/01/01 04:55:43;;;;;;;;;;;;;;;;;;5012588;28;20266;-87
2023/01/01 04:58:09;;;;;;;;;;;;;;;;;;4995281;28;19964;-89
2023/01/01 05:00:34;;;;;;;;;;;;;;;;;;5012194;28;19919;-89
2023/01/01 05:03:00;;;;;;;;;;;;;;;;;;5011242;28;19914;-90
2023/01/01 05:05:25;;;;;;;;;;;;;;;;;;5011847;28;19917;-90
2023/01/01 05:07:50;;;;;;;;;;;;;;;;;;5011303;28;19924;-89
2023/01/01 05:10:16;;;;;;;;;;;;;;;;;;5012854;28;19914;-87
2023/01/01 05:12:41;;;;;;;;;;;;;;;;;;5012336;28;19926;-88
2023/01/01 05:15:06;;;;;;;;;;;;;;;;;;5012826;28;19920;-91
2023/01/01 05:17:32;;;;;;;;;;;;;;;;;;5011583;28;20000;-88
2023/01/01 05:19:58;;;;;;;;;;;;;;;;;;5016354;28;19913;-90
2023/01/01 05:22:23;;;;;;;;;;;;;;;;;;5015220;28;20389;-88
2023/01/01 05:24:49;;;;;;;;;;;;;;;;;;5014754;28;19968;-89
2023/01/01 05:27:14;;;;;;;;;;;;;;;;;;5015509;28;20008;-88
2023/01/01 05:29:39;;;;;;;;;;;;;;;;;;5015511;28;19913;-87
2023/01/01 05:32:07;;;;;;;;;;;;;;;;;;5013668;28;22321;-88
2023/01/01 05:34:32;;;;;;;;;;;;;;;;;;5014109;28;19968;-89
2023/01/01 05:36:57;;;;;;;;;;;;;;;;;;4999796;28;20328;-86
2023/01/01 05:39:23;;;;;;;;;;;;;;;;;;5002002;28;19964;-87
2023/01/01 05:41:48;;;;;;;;;;;;;;;;;;5018481;28;20324;-87
2023/01/01 05:44:15;;;;;;;;;;;;;;;;;;4977172;23;19980;-85
2023/01/01 05:46:41;;;;;;;;;;;;;;;;;;4943535;28;19961;-85
2023/01/01 05:49:06;;;;;;;;;;;;;;;;;;4943198;28;20367;-86
2023/01/01 05:51:32;;;;;;;;;;;;;;;;;;4958931;28;20270;-87
2023/01/01 05:53:57;;;;;;;;;;;;;;;;;;4958605;28;19968;-85
2023/01/01 05:56:22;;;;;;;;;;;;;;;;;;4959167;28;19914;-86
2023/01/01 05:58:48;;;;;;;;;;;;;;;;;;4959173;28;19936;-87
2023/01/01 06:01:13;;;;;;;;;;;;;;;;;;4959079;28;19952;-86
2023/01/01 06:03:39;;;;;;;;;;;;;;;;;;4958769;28;20408;-86
2023/01/01 06:06:04;;;;;;;;;;;;;;;;;;4958953;28;20334;-85
2023/01/01 06:08:29;;;;;;;;;;;;;;;;;;4975004;28;20325;-87
2023/01/01 06:10:55;;;;;;;;;;;;;;;;;;4975971;28;19914;-86
2023/01/01 06:13:20;;;;;;;;;;;;;;;;;;4958317;28;19914;-88
2023/01/01 06:15:46;;;;;;;;;;;;;;;;;;4975661;28;20350;-87
2023/01/01 06:18:11;;;;;;;;;;;;;;;;;;4975862;28;20453;-86
2023/01/01 06:20:36;;;;;;;;;;;;;;;;;;4976062;28;19914;-86
2023/01/01 06:23:02;;;;;;;;;;;;;;;;;;4975712;28;19954;-87
2023/01/01 06:25:27;;;;;;;;;;;;;;;;;;4975997;28;20267;-86
2023/01/01 06:27:52;;;;;;;;;;;;;;;;;;4959268;28;20041;-87
2023/01/01 06:30:18;;;;;;;;;;;;;;;;;;4975798;28;20182;-85
2023/01/01 06:32:43;;;;;;;;;;;;;;;;;;4974761;28;19914;-87
2023/01/01 06:35:08;;;;;;;;;;;;;;;;;;4975281;28;20493;-86
2023/01/01 06:37:34;;;;;;;;;;;;;;;;;;4975523;28;19922;-87
2023/01/01 06:39:59;;;;;;;;;;;;;;;;;;4975584;28;20366;-87
2023/01/01 06:42:24;;;;;;;;;;;;;;;;;;4958140;28;19926;-86
2023/01/01 06:44:50;;;;;;;;;;;;;;;;;;4978635;28;19918;-83
2023/01/01 06:47:16;;;;;;;;;;;;;;;;;;4964994;28;19914;-86
2023/01/01 06:49:42;;;;;;;;;;;;;;;;;;4980584;28;19964;-85
2023/01/01 06:52:08;;;;;;;;;;;;;;;;;;4981806;28;19949;-85
2023/01/01 06:54:34;;;;;;;;;;;;;;;;;;4982197;28;19941;-86
2023/01/01 06:56:59;;;;;;;;;;;;;;;;;;4959348;28;19934;-85
2023/01/01 06:59:24;;;;;;;;;;;;;;;;;;4975659;28;19914;-86
2023/01/01 07:01:50;;;;;;;;;;;;;;;;;;4974505;28;20021;-86
2023/01/01 07:04:15;;;;;;;;;;;;;;;;;;4973866;28;19918;-84
2023/01/01 07:06:41;;;;;;;;;;;;;;;;;;4958191;28;19922;-85
2023/01/01 07:09:06;;;;;;;;;;;;;;;;;;4975327;28;19914;-86
2023/01/01 07:11:32;;;;;;;;;;;;;;;;;;4976235;28;19953;-86
2023/01/01 07:13:57;;;;;;;;;;;;;;;;;;4958623;28;19910;-85
2023/01/01 07:16:23;;;;;;;;;;;;;;;;;;4975361;28;19922;-87
2023/01/01 07:18:49;;;;;;;;;;;;;;;;;;4958543;28;19915;-87
2023/01/01 07:21:14;;;;;;;;;;;;;;;;;;4974239;28;19922;-87
2023/01/01 07:23:40;;;;;;;;;;;;;;;;;;4974007;28;19914;-87
2023/01/01 07:26:05;;;;;;;;;;;;;;;;;;4973880;28;19914;-86
2023/01/01 07:28:30;;;;;;;;;;;;;;;;;;4975086;28;20400;-88
2023/01/01 07:30:56;;;;;;;;;;;;;;;;;;4973726;28;20013;-87
2023/01/01 07:33:21;;;;;;;;;;;;;;;;;;4975939;28;19918;-86
2023/01/01 07:35:47;;;;;;;;;;;;;;;;;;4959000;28;20400;-86
2023/01/01 07:38:12;;;;;;;;;;;;;;;;;;4976069;28;20521;-87
2023/01/01 07:40:37;;;;;;;;;;;;;;;;;;4976639;28;20267;-86
2023/01/01 07:43:03;;;;;;;;;;;;;;;;;;4975651;28;20005;-86
2023/01/01 07:45:28;;;;;;;;;;;;;;;;;;4977001;28;20428;-87
2023/01/01 07:47:54;;;;;;;;;;;;;;;;;;4976742;28;19921;-87
2023/01/01 07:50:19;;;;;;;;;;;;;;;;;;4985954;28;19982;-85
2023/01/01 07:52:44;;;;;;;;;;;;;;;;;;4987058;28;19910;-86
2023/01/01 07:55:10;;;;;;;;;;;;;;;;;;4985894;28;19915;-86
2023/01/01 07:57:35;;;;;;;;;;;;;;;;;;4983511;28;19914;-87
2023/01/01 08:00:00;;;;;;;;;;;;;;;;;;4979687;28;19949;-88
2023/01/01 08:02:26;;;;;;;;;;;;;;;;;;4963636;28;19918;-86
2023/01/01 08:04:51;;;;;;;;;;;;;;;;;;4982730;28;19988;-85
2023/01/01 08:07:17;;;;;;;;;;;;;;;;;;4978879;28;20016;-86
2023/01/01 08:09:42;;;;;;;;;;;;;;;;;;4963769;28;19925;-86
2023/01/01 08:12:07;;;;;;;;;;;;;;;;;;4980255;28;19921;-85
2023/01/01 08:14:33;;;;;;;;;;;;;;;;;;4986187;28;19952;-86
2023/01/01 08:16:58;;;;;;;;;;;;;;;;;;4986579;28;19945;-85
2023/01/01 08:19:23;;;;;;;;;;;;;;;;;;4985399;28;19915;-85
2023/01/01 08:21:49;;;;;;;;;;;;;;;;;;4981484;28;19964;-86
2023/01/01 08:24:14;;;;;;;;;;;;;;;;;;4972731;28;19914;-85
2023/01/01 08:26:40;;;;;;;;;;;;;;;;;;4974293;28;19961;-84
2023/01/01 08:29:05;;;;;;;;;;;;;;;;;;4957480;28;19914;-86
2023/01/01 08:31:30;;;;;;;;;;;;;;;;;;4973368;28;19914;-86
2023/01/01 08:33:56;;;;;;;;;;;;;;;;;;4973252;28;19921;-84
2023/01/01 08:36:21;;;;;;;;;;;;;;;;;;4978483;28;19919;-84
2023/01/01 08:38:47;;;;;;;;;;;;;;;;;;4974790;28;19914;-86
2023/01/01 08:41:12;;;;;;;;;;;;;;;;;;4957663;28;19918;-86
2023/01/01 08:43:38;;;;;;;;;;;;;;;;;;4973001;28;19918;-86
2023/01/01 08:46:03;;;;;;;;;;;;;;;;;;4973514;28;19914;-86
2023/01/01 08:48:29;;;;;;;;;;;;;;;;;;4973450;28;20262;-86
2023/01/01 08:50:54;;;;;;;;;;;;;;;;;;4975188;28;19920;-87
2023/01/01 08:53:19;;;;;;;;;;;;;;;;;;4976196;28;20317;-87
2023/01/01 08:55:45;;;;;;;;;;;;;;;;;;4977886;28;19921;-85
2023/01/01 08:58:10;;;;;;;;;;;;;;;;;;4984147;28;20058;-87
2023/01/01 09:00:36;;;;;;;;;;;;;;;;;;4983995;28;19914;-86
2023/01/01 09:03:01;;;;;;;;;;;;;;;;;;4981978;28;19929;-86
2023/01/01 09:05:26;;;;;;;;;;;;;;;;;;4985732;28;19914;-86
2023/01/01 09:07:52;;;;;;;;;;;;;;;;;;4983488;28;19921;-85
2023/01/01 09:10:17;;;;;;;;;;;;;;;;;;4963287;28;20301;-85
2023/01/01 09:12:43;;;;;;;;;;;;;;;;;;4975882;28;19964;-87
2023/01/01 09:15:08;;;;;;;;;;;;;;;;;;4976940;28;19914;-85
2023/01/01 09:17:33;;;;;;;;;;;;;;;;;;4975811;28;19914;-86
2023/01/01 09:19:59;;;;;;;;;;;;;;;;;;4977103;28;20290;-86
2023/01/01 09:22:24;;;;;;;;;;;;;;;;;;4975368;28;19918;-86
2023/01/01 09:24:49;;;;;;;;;;;;;;;;;;4976784;28;19915;-86
2023/01/01 09:27:15;;;;;;;;;;;;;;;;;;4977074;28;19922;-86
2023/01/01 09:29:40;;;;;;;;;;;;;;;;;;4975890;28;19914;-86
2023/01/01 09:32:06;;;;;;;;;;;;;;;;;;4959596;28;19957;-87
2023/01/01 09:34:31;;;;;;;;;;;;;;;;;;4977116;28;19918;-87
2023/01/01 09:36:56;;;;;;;;;;;;;;;;;;4977656;28;19918;-85
2023/01/01 09:39:22;;;;;;;;;;;;;;;;;;4977514;28;20302;-87
2023/01/01 09:41:49;;;;;;;;;;;;;;;;;;4977642;28;19918;-85
2023/01/01 09:44:14;;;;;;;;;;;;;;;;;;4975809;28;20265;-84
2023/01/01 09:46:40;;;;;;;;;;;;;;;;;;4978525;28;19953;-86
2023/01/01 09:49:05;;;;;;;;;;;;;;;;;;4977679;28;19937;-86
2023/01/01 09:51:30;;;;;;;;;;;;;;;;;;4979023;28;20409;-86
2023/01/01 09:53:56;;;;;;;;;;;;;;;;;;4978239;28;20196;-86
2023/01/01 09:56:21;;;;;;;;;;;;;;;;;;4978440;28;19946;-87
2023/01/01 09:58:46;;;;;;;;;;;;;;;;;;4976873;28;20301;-87
2023/01/01 10:01:12;;;;;;;;;;;;;;;;;;4980137;28;19922;-88
2023/01/01 10:03:38;;;;;;;;;;;;;;;;;;4983047;28;20382;-86
2023/01/01 10:06:03;;;;;;;;;;;;;;;;;;4982327;28;19921;-87
2023/01/01 10:08:28;;;;;;;;;;;;;;;;;;4981877;28;20531;-84
2023/01/01 10:10:54;;;;;;;;;;;;;;;;;;4974856;28;19914;-86
2023/01/01 10:13:19;;;;;;;;;;;;;;;;;;4975506;28;20397;-84
2023/01/01 10:15:45;;;;;;;;;;;;;;;;;;4975799;28;19917;-87
2023/01/01 10:18:10;;;;;;;;;;;;;;;;;;4958650;28;19914;-87
2023/01/01 10:20:35;;;;;;;;;;;;;;;;;;4974513;28;20009;-87
2023/01/01 10:23:01;;;;;;;;;;;;;;;;;;4975448;28;20038;-84
2023/01/01 10:25:26;;;;;;;;;;;;;;;;;;4974240;28;19970;-86
2023/01/01 10:27:52;;;;;;;;;;;;;;;;;;4975623;28;19919;-85
2023/01/01 10:30:17;;;;;;;;;;;;;;;;;;4958454;28;20354;-84
2023/01/01 10:32:44;;;;;;;;;;;;;;;;;;4974381;28;19927;-86
2023/01/01 10:35:09;;;;;;;;;;;;;;;;;;4974560;28;19914;-86
2023/01/01 10:37:35;;;;;;;;;;;;;;;;;;4975438;28;19921;-86
2023/01/01 10:40:00;;;;;;;;;;;;;;;;;;4958429;28;20374;-87
2023/01/01 10:42:26;;;;;;;;;;;;;;;;;;4975340;28;19918;-86
2023/01/01 10:44:52;;;;;;;;;;;;;;;;;;4957965;28;20376;-86
2023/01/01 10:47:17;;;;;;;;;;;;;;;;;;4975220;28;19921;-84
2023/01/01 10:49:42;;;;;;;;;;;;;;;;;;4974982;28;19993;-86
2023/01/01 10:52:08;;;;;;;;;;;;;;;;;;4974367;28;20286;-85
2023/01/01 10:54:33;;;;;;;;;;;;;;;;;;4973410;28;19914;-87
2023/01/01 10:56:58;;;;;;;;;;;;;;;;;;4973621;28;20325;-87
2023/01/01 10:59:24;;;;;;;;;;;;;;;;;;4973937;28;20382;-85
2023/01/01 11:01:49;;;;;;;;;;;;;;;;;;4975104;28;20389;-86
2023/01/01 11:04:15;;;;;;;;;;;;;;;;;;4973696;28;20390;-87
2023/01/01 11:06:40;;;;;;;;;;;;;;;;;;4974842;28;19918;-86
2023/01/01 11:09:06;;;;;;;;;;;;;;;;;;4974118;28;19914;-87
2023/01/01 11:11:31;;;;;;;;;;;;;;;;;;4974161;28;20270;-87
2023/01/01 11:13:56;;;;;;;;;;;;;;;;;;4973471;28;19921;-86
2023/01/01 11:16:22;;;;;;;;;;;;;;;;;;4973627;28;19918;-86
2023/01/01 11:18:47;;;;;;;;;;;;;;;;;;4974411;28;19914;-87
2023/01/01 11:21:13;;;;;;;;;;;;;;;;;;4972909;28;20378;-85
2023/01/01 11:23:38;;;;;;;;;;;;;;;;;;4973051;28;19914;-87
2023/01/01 11:26:04;;;;;;;;;;;;;;;;;;4973378;28;19950;-85
2023/01/01 11:28:30;;;;;;;;;;;;;;;;;;4973149;28;19910;-85
2023/01/01 11:30:55;;;;;;;;;;;;;;;;;;4974340;28;19914;-86
2023/01/01 11:33:21;;;;;;;;;;;;;;;;;;4974240;28;19968;-85
2023/01/01 11:35:46;;;;;;;;;;;;;;;;;;4974390;28;19914;-85
2023/01/01 11:38:11;;;;;;;;;;;;;;;;;;4974134;28;19972;-87
2023/01/01 11:40:37;;;;;;;;;;;;;;;;;;4974223;28;19914;-85
2023/01/01 11:43:03;;;;;;;;;;;;;;;;;;4987373;23;19929;-88
2023/01/01 11:45:29;;;;;;;;;;;;;;;;;;4992077;28;19918;-87
2023/01/01 11:47:55;;;;;;;;;;;;;;;;;;4960032;28;20301;-89
2023/01/01 11:50:20;;;;;;;;;;;;;;;;;;4976066;28;19928;-88
2023/01/01 11:52:46;;;;;;;;;;;;;;;;;;4992028;28;19964;-87
2023/01/01 11:55:12;;;;;;;;;;;;;;;;;;4940922;28;19914;-87
2023/01/01 11:57:37;;;;;;;;;;;;;;;;;;4956516;28;19914;-88
2023/01/01 12:00:03;;;;;;;;;;;;;;;;;;4940563;28;19914;-88
2023/01/01 12:02:38;;;;;;;;;;;;;;;;;;4957548;28;19925;-87
2023/01/01 12:05:03;;;;;;;;;;;;;;;;;;4940566;28;20281;-88
2023/01/01 12:07:29;;;;;;;;;;;;;;;;;;4956408;28;20366;-87
2023/01/01 12:09:54;;;;;;;;;;;;;;;;;;4940547;28;19914;-88
2023/01/01 12:12:20;;;;;;;;;;;;;;;;;;4956594;28;19922;-89
2023/01/01 12:14:45;;;;;;;;;;;;;;;;;;4956908;28;20506;-88
2023/01/01 12:17:11;;;;;;;;;;;;;;;;;;4942429;28;19921;-88
2023/01/01 12:19:36;;;;;;;;;;;;;;;;;;4943036;28;19914;-87
2023/01/01 12:22:01;;;;;;;;;;;;;;;;;;4943500;28;20033;-87
2023/01/01 12:24:27;;;;;;;;;;;;;;;;;;4961112;28;19941;-87
2023/01/01 12:26:52;;;;;;;;;;;;;;;;;;4965732;28;19918;-86
2023/01/01 12:29:18;;;;;;;;;;;;;;;;;;4985883;28;20282;-86
2023/01/01 12:31:43;;;;;;;;;;;;;;;;;;4992424;28;19921;-88
2023/01/01 12:34:09;;;;;;;;;;;;;;;;;;4995988;28;19903;-86
2023/01/01 12:36:34;;;;;;;;;;;;;;;;;;4993404;28;20218;-85
2023/01/01 12:38:59;;;;;;;;;;;;;;;;;;4983248;28;19914;-87
2023/01/01 12:41:25;;;;;;;;;;;;;;;;;;4980778;28;20254;-88
2023/01/01 12:43:50;;;;;;;;;;;;;;;;;;4978083;28;19918;-87
2023/01/01 12:46:16;;;;;;;;;;;;;;;;;;4976483;28;19914;-87
2023/01/01 12:48:42;;;;;;;;;;;;;;;;;;4977457;28;19954;-86
2023/01/01 12:51:07;;;;;;;;;;;;;;;;;;4975899;28;19914;-87
2023/01/01 12:53:33;;;;;;;;;;;;;;;;;;4975522;28;20294;-88
2023/01/01 12:56:00;;;;;;;;;;;;;;;;;;4975505;28;19910;-88
2023/01/01 12:58:26;;;;;;;;;;;;;;;;;;4976236;28;19925;-87
2023/01/01 13:00:51;;;;;;;;;;;;;;;;;;4960631;28;19921;-89
2023/01/01 13:03:16;;;;;;;;;;;;;;;;;;4975930;28;19914;-88
2023/01/01 13:05:42;;;;;;;;;;;;;;;;;;4975749;28;20373;-86
2023/01/01 13:08:07;;;;;;;;;;;;;;;;;;4959516;28;19914;-87
2023/01/01 13:10:33;;;;;;;;;;;;;;;;;;4959415;28;19973;-88
2023/01/01 13:12:58;;;;;;;;;;;;;;;;;;4959688;28;19914;-87
2023/01/01 13:15:24;;;;;;;;;;;;;;;;;;4976135;28;19921;-86
2023/01/01 13:17:49;;;;;;;;;;;;;;;;;;4943629;28;20341;-87
2023/01/01 13:20:14;;;;;;;;;;;;;;;;;;4959482;28;19995;-86
2023/01/01 13:22:41;;;;;;;;;;;;;;;;;;4974908;28;19922;-86
2023/01/01 13:25:07;;;;;;;;;;;;;;;;;;4975088;28;19951;-87
2023/01/01 13:27:32;;;;;;;;;;;;;;;;;;4975130;28;20377;-86
2023/01/01 13:29:58;;;;;;;;;;;;;;;;;;4974837;28;19948;-87
2023/01/01 13:32:23;;;;;;;;;;;;;;;;;;4974910;28;19914;-87
2023/01/01 13:34:48;;;;;;;;;;;;;;;;;;4976219;28;20361;-86
2023/01/01 13:37:16;;;;;;;;;;;;;;;;;;4959202;28;20365;-86
2023/01/01 13:39:41;;;;;;;;;;;;;;;;;;4975880;28;19914;-87
2023/01/01 13:42:07;;;;;;;;;;;;;;;;;;4958468;28;19964;-86
2023/01/01 13:44:32;;;;;;;;;;;;;;;;;;4959492;28;20362;-87
2023/01/01 13:46:58;;;;;;;;;;;;;;;;;;4977083;28;19910;-86
2023/01/01 13:49:23;;;;;;;;;;;;;;;;;;4959330;28;20436;-88
2023/01/01 13:51:48;;;;;;;;;;;;;;;;;;4975505;28;19921;-88
2023/01/01 13:54:14;;;;;;;;;;;;;;;;;;4974287;28;20318;-87
2023/01/01 13:56:39;;;;;;;;;;;;;;;;;;4975536;28;20408;-85
2023/01/01 13:59:05;;;;;;;;;;;;;;;;;;4975350;28;19918;-87
2023/01/01 14:01:30;;;;;;;;;;;;;;;;;;4974610;28;20381;-87
2023/01/01 14:03:56;;;;;;;;;;;;;;;;;;4974163;28;19929;-86
2023/01/01 14:06:21;;;;;;;;;;;;;;;;;;4974420;28;20259;-86
2023/01/01 14:08:47;;;;;;;;;;;;;;;;;;4975430;28;19945;-86
2023/01/01 14:11:12;;;;;;;;;;;;;;;;;;4975266;28;20406;-86
2023/01/01 14:13:37;;;;;;;;;;;;;;;;;;4974249;28;19921;-85
2023/01/01 14:16:05;;;;;;;;;;;;;;;;;;4958131;28;19934;-87
2023/01/01 14:18:30;;;;;;;;;;;;;;;;;;4975461;28;19914;-85
2023/01/01 14:20:55;;;;;;;;;;;;;;;;;;4975791;28;19918;-84
2023/01/01 14:23:21;;;;;;;;;;;;;;;;;;4974932;28;19921;-86
2023/01/01 14:25:46;;;;;;;;;;;;;;;;;;4975577;28;19914;-86
2023/01/01 14:28:12;;;;;;;;;;;;;;;;;;4975308;28;19937;-85
2023/01/01 14:30:37;;;;;;;;;;;;;;;;;;4974272;28;19997;-87
2023/01/01 14:33:02;;;;;;;;;;;;;;;;;;4974126;28;19921;-87
2023/01/01 14:35:28;;;;;;;;;;;;;;;;;;4974279;28;19914;-88
2023/01/01 14:37:53;;;;;;;;;;;;;;;;;;4974636;28;19914;-87
2023/01/01 14:40:29;;;;;;;;;;;;;;;;;;4975185;28;19914;-86
2023/01/01 14:42:54;;;;;;;;;;;;;;;;;;4973169;28;20025;-86
2023/01/01 14:45:20;;;;;;;;;;;;;;;;;;4973144;28;20004;-87
2023/01/01 14:47:45;;;;;;;;;;;;;;;;;;4973349;28;19918;-86
2023/01/01 14:50:11;;;;;;;;;;;;;;;;;;4974798;28;19914;-88
2023/01/01 14:52:36;;;;;;;;;;;;;;;;;;4973700;28;19945;-87
2023/01/01 14:55:02;;;;;;;;;;;;;;;;;;4973053;28;19922;-88
2023/01/01 14:57:28;;;;;;;;;;;;;;;;;;4942045;28;20376;-87
2023/01/01 14:59:55;;;;;;;;;;;;;;;;;;4942352;28;19914;-87
2023/01/01 15:02:21;;;;;;;;;;;;;;;;;;4974883;28;19918;-85
2023/01/01 15:04:46;;;;;;;;;;;;;;;;;;4974919;28;19921;-84
2023/01/01 15:07:11;;;;;;;;;;;;;;;;;;4958966;28;20374;-86
2023/01/01 15:09:37;;;;;;;;;;;;;;;;;;4959759;28;20382;-87
2023/01/01 15:12:02;;;;;;;;;;;;;;;;;;4975213;28;19920;-90
2023/01/01 15:14:28;;;;;;;;;;;;;;;;;;4965209;28;19918;-96
2023/01/01 15:16:53;;;;;;;;;;;;;;;;;;4947558;28;19914;-83
2023/01/01 15:19:19;;;;;;;;;;;;;;;;;;4975995;28;19920;-88
2023/01/01 15:21:44;;;;;;;;;;;;;;;;;;4979244;28;20509;-83
2023/01/01 15:24:10;;;;;;;;;;;;;;;;;;4977214;28;20460;-85
2023/01/01 15:26:35;;;;;;;;;;;;;;;;;;4976444;28;19918;-79
2023/01/01 15:29:01;;;;;;;;;;;;;;;;;;4978990;28;19921;-86
2023/01/01 15:31:26;;;;;;;;;;;;;;;;;;4978028;28;19957;-85
2023/01/01 15:33:51;;;;;;;;;;;;;;;;;;4976203;28;20301;-86
2023/01/01 15:36:18;;;;;;;;;;;;;;;;;;4978087;28;19969;-87
2023/01/01 15:38:43;;;;;;;;;;;;;;;;;;4963583;28;19914;-88
2023/01/01 15:41:09;;;;;;;;;;;;;;;;;;4979308;28;19922;-86
2023/01/01 15:43:34;;;;;;;;;;;;;;;;;;4979772;28;19925;-87
2023/01/01 15:46:00;;;;;;;;;;;;;;;;;;4979330;28;19914;-85
2023/01/01 15:48:25;;;;;;;;;;;;;;;;;;4982818;28;19973;-86
2023/01/01 15:50:51;;;;;;;;;;;;;;;;;;4995777;28;19956;-88
2023/01/01 15:53:16;;;;;;;;;;;;;;;;;;4976313;28;19910;-85
2023/01/01 15:55:42;;;;;;;;;;;;;;;;;;4973672;28;19914;-86
2023/01/01 15:58:07;;;;;;;;;;;;;;;;;;4973073;28;20009;-87
2023/01/01 16:00:32;;;;;;;;;;;;;;;;;;4973621;28;20001;-86
2023/01/01 16:02:58;;;;;;;;;;;;;;;;;;4973130;28;20258;-87
2023/01/01 16:05:23;;;;;;;;;;;;;;;;;;4973718;28;20436;-84
2023/01/01 16:07:49;;;;;;;;;;;;;;;;;;4973408;28;20378;-85
2023/01/01 16:10:14;;;;;;;;;;;;;;;;;;4988435;28;20401;-86
2023/01/01 16:12:39;;;;;;;;;;;;;;;;;;4972988;28;19914;-87
2023/01/01 16:15:05;;;;;;;;;;;;;;;;;;4971836;28;20014;-86
2023/01/01 16:17:30;;;;;;;;;;;;;;;;;;4973365;28;19914;-87
2023/01/01 16:19:57;;;;;;;;;;;;;;;;;;4973608;28;19965;-85
2023/01/01 16:22:22;;;;;;;;;;;;;;;;;;4953796;28;20016;-85
2023/01/01 16:24:48;;;;;;;;;;;;;;;;;;4954157;28;20382;-85
2023/01/01 16:27:13;;;;;;;;;;;;;;;;;;4954726;28;19922;-85
2023/01/01 16:29:39;;;;;;;;;;;;;;;;;;4969013;28;19973;-86
2023/01/01 16:32:04;;;;;;;;;;;;;;;;;;4968912;28;19918;-85
2023/01/01 16:34:30;;;;;;;;;;;;;;;;;;4961651;28;19914;-86
2023/01/01 16:36:55;;;;;;;;;;;;;;;;;;4973166;28;20400;-87